sensor_id;sensor_type;location;lat;lon;timestamp;pressure;altitude;pressure_sealevel;temperature;humidity
43161;BME280;40968;52.342;5.528;2023-02-10T00:01:30;103371.63;;;0.39;82.09
43161;BME280;40968;52.342;5.528;2023-02-10T00:03:56;103296.44;;;-0.09;82.06
43161;BME280;40968;52.342;5.528;2023-02-10T00:06:26;103527.25;;;1.27;81.93
43161;BME280;40968;52.342;5.528;2023-02-10T00:08:55;103375.94;;;0.31;82.15
43161;BME280;40968;52.342;5.528;2023-02-10T00:11:22;103455.59;;;0.83;82.03
43161;BME280;40968;52.342;5.528;2023-02-10T00:14:09;103360.13;;;0.29;82.05
43161;BME280;40968;52.342;5.528;2023-02-10T00:16:36;103339.78;;;0.18;82.30
43161;BME280;40968;52.342;5.528;2023-02-10T00:19:03;103389.28;;;0.45;82.59
43161;BME280;40968;52.342;5.528;2023-02-10T00:21:31;103528.97;;;1.22;82.28
43161;BME280;40968;52.342;5.528;2023-02-10T00:23:58;103488.28;;;0.96;82.28
43161;BME280;40968;52.342;5.528;2023-02-10T00:26:24;103526.31;;;1.20;82.38
43161;BME280;40968;52.342;5.528;2023-02-10T00:28:51;103529.81;;;1.19;82.37
43161;BME280;40968;52.342;5.528;2023-02-10T00:31:18;103522.81;;;1.18;82.28
43161;BME280;40968;52.342;5.528;2023-02-10T00:33:47;103480.28;;;0.87;82.61
43161;BME280;40968;52.342;5.528;2023-02-10T00:36:14;103501.47;;;0.96;82.42
43161;BME280;40968;52.342;5.528;2023-02-10T00:38:43;103515.69;;;1.09;82.81
43161;BME280;40968;52.342;5.528;2023-02-10T00:41:12;103438.66;;;0.58;82.39
43161;BME280;40968;52.342;5.528;2023-02-10T00:43:39;103496.13;;;0.87;82.27
43161;BME280;40968;52.342;5.528;2023-02-10T00:46:08;103548.25;;;1.10;82.16
43161;BME280;40968;52.342;5.528;2023-02-10T00:48:35;103466.03;;;0.70;82.45
43161;BME280;40968;52.342;5.528;2023-02-10T00:51:02;103535.94;;;1.10;82.46
43161;BME280;40968;52.342;5.528;2023-02-10T00:53:29;103529.75;;;1.10;82.48
43161;BME280;40968;52.342;5.528;2023-02-10T00:55:57;103528.88;;;1.09;82.44
43161;BME280;40968;52.342;5.528;2023-02-10T00:58:23;103500.53;;;0.87;82.59
43161;BME280;40968;52.342;5.528;2023-02-10T01:00:50;103543.81;;;1.06;82.62
43161;BME280;40968;52.342;5.528;2023-02-10T01:03:17;103542.94;;;1.04;82.35
43161;BME280;40968;52.342;5.528;2023-02-10T01:05:43;103536.75;;;1.02;82.20
43161;BME280;40968;52.342;5.528;2023-02-10T01:08:11;103492.47;;;0.73;82.48
43161;BME280;40968;52.342;5.528;2023-02-10T01:10:37;103528.78;;;0.98;82.59
43161;BME280;40968;52.342;5.528;2023-02-10T01:13:07;103429.63;;;0.35;82.50
43161;BME280;40968;52.342;5.528;2023-02-10T01:15:34;103548.16;;;0.99;82.72
43161;BME280;40968;52.342;5.528;2023-02-10T01:18:00;103442.78;;;0.30;82.62
43161;BME280;40968;52.342;5.528;2023-02-10T01:20:27;103543.63;;;0.86;82.87
43161;BME280;40968;52.342;5.528;2023-02-10T01:22:54;103523.28;;;0.74;82.32
43161;BME280;40968;52.342;5.528;2023-02-10T01:25:20;103566.63;;;0.94;82.38
43161;BME280;40968;52.342;5.528;2023-02-10T01:27:47;103350.75;;;-0.25;82.30
43161;BME280;40968;52.342;5.528;2023-02-10T01:30:15;103370.22;;;-0.17;82.22
43161;BME280;40968;52.342;5.528;2023-02-10T01:32:41;103556.91;;;0.93;82.71
43161;BME280;40968;52.342;5.528;2023-02-10T01:35:08;103511.78;;;0.69;82.55
43161;BME280;40968;52.342;5.528;2023-02-10T01:37:34;103362.03;;;-0.39;82.59
43161;BME280;40968;52.342;5.528;2023-02-10T01:40:03;103555.13;;;0.89;82.52
43161;BME280;40968;52.342;5.528;2023-02-10T01:42:30;103399.31;;;-0.08;82.32
43161;BME280;40968;52.342;5.528;2023-02-10T01:45:13;103513.41;;;0.56;82.26
43161;BME280;40968;52.342;5.528;2023-02-10T01:47:42;103409.78;;;-0.14;82.43
43161;BME280;40968;52.342;5.528;2023-02-10T01:50:09;103524.94;;;0.64;82.65
43161;BME280;40968;52.342;5.528;2023-02-10T01:52:36;103340.88;;;-0.45;82.49
43161;BME280;40968;52.342;5.528;2023-02-10T01:55:05;103455.88;;;0.21;82.67
43161;BME280;40968;52.342;5.528;2023-02-10T01:57:33;103527.53;;;0.59;82.80
43161;BME280;40968;52.342;5.528;2023-02-10T02:00:02;103520.38;;;0.49;82.71
43161;BME280;40968;52.342;5.528;2023-02-10T02:02:29;103531.94;;;0.60;82.53
43161;BME280;40968;52.342;5.528;2023-02-10T02:05:03;103574.41;;;0.82;83.12
43161;BME280;40968;52.342;5.528;2023-02-10T02:07:33;103579.59;;;0.74;82.95
43161;BME280;40968;52.342;5.528;2023-02-10T02:10:02;103383.03;;;-0.43;82.86
43161;BME280;40968;52.342;5.528;2023-02-10T02:12:35;103584.06;;;0.80;82.50
43161;BME280;40968;52.342;5.528;2023-02-10T02:15:12;103578.75;;;0.78;82.74
43161;BME280;40968;52.342;5.528;2023-02-10T02:17:44;103406.22;;;-0.18;82.95
43161;BME280;40968;52.342;5.528;2023-02-10T02:20:35;103489.41;;;0.34;82.58
43161;BME280;40968;52.342;5.528;2023-02-10T02:23:26;103571.69;;;0.76;82.67
43161;BME280;40968;52.342;5.528;2023-02-10T02:26:18;103557.59;;;0.74;82.92
43161;BME280;40968;52.342;5.528;2023-02-10T02:29:03;103431.88;;;-0.03;82.54
43161;BME280;40968;52.342;5.528;2023-02-10T02:31:49;103336.25;;;-0.63;82.44
43161;BME280;40968;52.342;5.528;2023-02-10T02:34:22;103509.66;;;0.33;82.75
43161;BME280;40968;52.342;5.528;2023-02-10T02:36:57;103527.38;;;0.44;82.79
43161;BME280;40968;52.342;5.528;2023-02-10T02:39:26;103540.63;;;0.50;82.73
43161;BME280;40968;52.342;5.528;2023-02-10T02:42:14;103561.78;;;0.53;82.79
43161;BME280;40968;52.342;5.528;2023-02-10T02:44:42;103373.25;;;-0.55;82.24
43161;BME280;40968;52.342;5.528;2023-02-10T02:47:15;103576.75;;;0.57;82.80
43161;BME280;40968;52.342;5.528;2023-02-10T02:49:50;103386.41;;;-0.57;82.88
43161;BME280;40968;52.342;5.528;2023-02-10T02:52:27;103518.28;;;0.19;82.87
43161;BME280;40968;52.342;5.528;2023-02-10T02:55:00;103419.16;;;-0.38;82.54
43161;BME280;40968;52.342;5.528;2023-02-10T02:57:36;103568.72;;;0.46;82.84
43161;BME280;40968;52.342;5.528;2023-02-10T03:00:11;103571.44;;;0.53;82.87
43161;BME280;40968;52.342;5.528;2023-02-10T03:02:40;103571.41;;;0.51;82.75
43161;BME280;40968;52.342;5.528;2023-02-10T03:05:08;103568.75;;;0.49;82.82
43161;BME280;40968;52.342;5.528;2023-02-10T03:07:35;103576.66;;;0.48;83.29
43161;BME280;40968;52.342;5.528;2023-02-10T03:10:02;103574.88;;;0.47;82.86
43161;BME280;40968;52.342;5.528;2023-02-10T03:12:29;103577.53;;;0.47;83.22
43161;BME280;40968;52.342;5.528;2023-02-10T03:14:56;103409.34;;;-0.49;83.36
43161;BME280;40968;52.342;5.528;2023-02-10T03:17:22;103412.00;;;-0.48;82.94
43161;BME280;40968;52.342;5.528;2023-02-10T03:19:50;103566.94;;;0.42;82.90
43161;BME280;40968;52.342;5.528;2023-02-10T03:22:17;103533.31;;;0.27;83.44
43161;BME280;40968;52.342;5.528;2023-02-10T03:24:44;103535.06;;;0.27;82.72
43161;BME280;40968;52.342;5.528;2023-02-10T03:27:10;103485.41;;;-0.10;82.86
43161;BME280;40968;52.342;5.528;2023-02-10T03:29:37;103574.84;;;0.41;82.84
43161;BME280;40968;52.342;5.528;2023-02-10T03:32:04;103403.94;;;-0.59;83.14
43161;BME280;40968;52.342;5.528;2023-02-10T03:34:31;103422.50;;;-0.51;83.33
43161;BME280;40968;52.342;5.528;2023-02-10T03:36:59;103508.28;;;-0.09;83.23
43161;BME280;40968;52.342;5.528;2023-02-10T03:39:26;103572.09;;;0.35;82.84
43161;BME280;40968;52.342;5.528;2023-02-10T03:41:52;103579.13;;;0.34;82.90
43161;BME280;40968;52.342;5.528;2023-02-10T03:44:19;103572.09;;;0.31;82.94
43161;BME280;40968;52.342;5.528;2023-02-10T03:46:46;103534.84;;;0.07;82.98
43161;BME280;40968;52.342;5.528;2023-02-10T03:49:13;103401.97;;;-0.74;82.69
43161;BME280;40968;52.342;5.528;2023-02-10T03:51:39;103585.22;;;0.28;83.25
43161;BME280;40968;52.342;5.528;2023-02-10T03:54:07;103551.56;;;0.09;82.94
43161;BME280;40968;52.342;5.528;2023-02-10T03:56:34;103461.31;;;-0.39;82.89
43161;BME280;40968;52.342;5.528;2023-02-10T03:59:00;103501.97;;;-0.20;83.12
43161;BME280;40968;52.342;5.528;2023-02-10T04:01:27;103579.00;;;0.25;83.13
43161;BME280;40968;52.342;5.528;2023-02-10T04:03:53;103425.78;;;-0.68;83.01
43161;BME280;40968;52.342;5.528;2023-02-10T04:06:20;103549.72;;;0.03;82.93
43161;BME280;40968;52.342;5.528;2023-02-10T04:08:47;103422.94;;;-0.81;82.75
43161;BME280;40968;52.342;5.528;2023-02-10T04:11:15;103601.78;;;0.20;83.28
43161;BME280;40968;52.342;5.528;2023-02-10T04:13:41;103600.06;;;0.19;83.14
43161;BME280;40968;52.342;5.528;2023-02-10T04:16:10;103430.84;;;-0.80;82.94
43161;BME280;40968;52.342;5.528;2023-02-10T04:18:37;103403.41;;;-0.96;82.85
43161;BME280;40968;52.342;5.528;2023-02-10T04:21:05;103595.63;;;0.16;83.00
43161;BME280;40968;52.342;5.528;2023-02-10T04:23:32;103541.50;;;-0.20;83.54
43161;BME280;40968;52.342;5.528;2023-02-10T04:25:59;103562.69;;;-0.12;83.27
43161;BME280;40968;52.342;5.528;2023-02-10T04:28:27;103432.56;;;-0.85;83.28
43161;BME280;40968;52.342;5.528;2023-02-10T04:30:55;103606.06;;;0.10;83.12
43161;BME280;40968;52.342;5.528;2023-02-10T04:33:22;103606.94;;;0.10;83.39
43161;BME280;40968;52.342;5.528;2023-02-10T04:35:50;103547.56;;;-0.27;83.60
43161;BME280;40968;52.342;5.528;2023-02-10T04:38:17;103575.03;;;-0.10;83.51
43161;BME280;40968;52.342;5.528;2023-02-10T04:40:44;103561.59;;;-0.28;83.54
43161;BME280;40968;52.342;5.528;2023-02-10T04:43:11;103556.44;;;-0.22;83.77
43161;BME280;40968;52.342;5.528;2023-02-10T04:45:40;103578.53;;;-0.11;83.38
43161;BME280;40968;52.342;5.528;2023-02-10T04:48:07;103580.38;;;-0.05;83.72
43161;BME280;40968;52.342;5.528;2023-02-10T04:50:36;103510.22;;;-0.55;83.58
43161;BME280;40968;52.342;5.528;2023-02-10T04:53:03;103544.13;;;-0.20;83.87
43161;BME280;40968;52.342;5.528;2023-02-10T04:55:30;103594.56;;;0.05;83.94
43161;BME280;40968;52.342;5.528;2023-02-10T04:57:56;103593.72;;;0.06;83.69
43161;BME280;40968;52.342;5.528;2023-02-10T05:00:23;103585.75;;;0.03;83.56
43161;BME280;40968;52.342;5.528;2023-02-10T05:02:51;103524.50;;;-0.41;83.46
43161;BME280;40968;52.342;5.528;2023-02-10T05:05:18;103554.69;;;-0.20;83.65
43161;BME280;40968;52.342;5.528;2023-02-10T05:07:45;103549.34;;;-0.25;83.59
43161;BME280;40968;52.342;5.528;2023-02-10T05:10:11;103477.63;;;-0.65;83.76
43161;BME280;40968;52.342;5.528;2023-02-10T05:12:38;103407.66;;;-1.06;83.91
43161;BME280;40968;52.342;5.528;2023-02-10T05:15:04;103420.88;;;-1.01;83.55
43161;BME280;40968;52.342;5.528;2023-02-10T05:17:33;103408.53;;;-1.05;84.02
43161;BME280;40968;52.342;5.528;2023-02-10T05:20:01;103543.16;;;-0.28;83.91
43161;BME280;40968;52.342;5.528;2023-02-10T05:22:27;103452.81;;;-0.81;84.00
43161;BME280;40968;52.342;5.528;2023-02-10T05:24:54;103528.03;;;-0.42;83.97
43161;BME280;40968;52.342;5.528;2023-02-10T05:27:21;103381.00;;;-1.27;83.77
43161;BME280;40968;52.342;5.528;2023-02-10T05:29:48;103196.94;;;-2.35;83.84
43161;BME280;40968;52.342;5.528;2023-02-10T05:32:15;103595.28;;;-0.07;84.29
43161;BME280;40968;52.342;5.528;2023-02-10T05:34:41;103380.94;;;-1.30;83.96
43161;BME280;40968;52.342;5.528;2023-02-10T05:37:09;103435.75;;;-1.05;84.04
43161;BME280;40968;52.342;5.528;2023-02-10T05:39:36;103610.22;;;-0.08;84.17
43161;BME280;40968;52.342;5.528;2023-02-10T05:42:03;103594.44;;;-0.06;84.20
43161;BME280;40968;52.342;5.528;2023-02-10T05:44:29;103581.13;;;-0.14;84.37
43161;BME280;40968;52.342;5.528;2023-02-10T05:46:57;103393.41;;;-1.19;84.54
43161;BME280;40968;52.342;5.528;2023-02-10T05:49:24;103484.66;;;-0.64;84.35
43161;BME280;40968;52.342;5.528;2023-02-10T05:51:51;103594.53;;;0.00;84.70
43161;BME280;40968;52.342;5.528;2023-02-10T05:54:19;103532.53;;;-0.31;84.85
43161;BME280;40968;52.342;5.528;2023-02-10T05:56:46;103553.81;;;-0.21;85.01
43161;BME280;40968;52.342;5.528;2023-02-10T05:59:14;103593.69;;;0.04;85.01
43161;BME280;40968;52.342;5.528;2023-02-10T06:01:41;103563.41;;;-0.24;84.58
43161;BME280;40968;52.342;5.528;2023-02-10T06:04:08;103389.94;;;-1.16;84.84
43161;BME280;40968;52.342;5.528;2023-02-10T06:06:34;103590.25;;;0.10;84.96
43161;BME280;40968;52.342;5.528;2023-02-10T06:09:01;103513.97;;;-0.41;85.01
43161;BME280;40968;52.342;5.528;2023-02-10T06:11:29;103471.53;;;-0.59;84.86
43161;BME280;40968;52.342;5.528;2023-02-10T06:13:56;103522.88;;;-0.34;85.00
43161;BME280;40968;52.342;5.528;2023-02-10T06:16:23;103448.53;;;-0.73;85.30
43161;BME280;40968;52.342;5.528;2023-02-10T06:18:49;103567.13;;;-0.10;85.43
43161;BME280;40968;52.342;5.528;2023-02-10T06:21:16;103460.03;;;-0.64;85.12
43161;BME280;40968;52.342;5.528;2023-02-10T06:23:43;103553.97;;;-0.08;85.18
43161;BME280;40968;52.342;5.528;2023-02-10T06:26:10;103602.69;;;0.19;85.39
43161;BME280;40968;52.342;5.528;2023-02-10T06:28:38;103481.38;;;-0.47;85.17
43161;BME280;40968;52.342;5.528;2023-02-10T06:31:04;103506.03;;;-0.42;85.16
43161;BME280;40968;52.342;5.528;2023-02-10T06:33:32;103448.53;;;-0.73;85.31
43161;BME280;40968;52.342;5.528;2023-02-10T06:36:00;103603.53;;;0.18;85.55
43161;BME280;40968;52.342;5.528;2023-02-10T06:38:29;103377.75;;;-1.11;85.57
43161;BME280;40968;52.342;5.528;2023-02-10T06:40:55;103615.84;;;0.17;85.82
43161;BME280;40968;52.342;5.528;2023-02-10T06:43:22;103490.91;;;-0.57;85.32
43161;BME280;40968;52.342;5.528;2023-02-10T06:45:50;103614.09;;;0.16;85.96
43161;BME280;40968;52.342;5.528;2023-02-10T06:48:16;103227.13;;;-2.11;85.44
43161;BME280;40968;52.342;5.528;2023-02-10T06:50:43;103574.19;;;-0.09;85.76
43161;BME280;40968;52.342;5.528;2023-02-10T06:53:10;103561.72;;;-0.19;85.58
43161;BME280;40968;52.342;5.528;2023-02-10T06:55:36;103617.56;;;0.13;86.02
43161;BME280;40968;52.342;5.528;2023-02-10T06:58:03;103558.09;;;-0.27;85.65
43161;BME280;40968;52.342;5.528;2023-02-10T07:00:30;103534.97;;;-0.47;85.92
43161;BME280;40968;52.342;5.528;2023-02-10T07:02:58;103324.38;;;-1.57;85.65
43161;BME280;40968;52.342;5.528;2023-02-10T07:05:25;103510.34;;;-0.49;85.77
43161;BME280;40968;52.342;5.528;2023-02-10T07:07:53;103494.41;;;-0.58;85.88
43161;BME280;40968;52.342;5.528;2023-02-10T07:10:20;103584.81;;;-0.03;86.03
43161;BME280;40968;52.342;5.528;2023-02-10T07:12:47;103621.16;;;0.19;85.97
43161;BME280;40968;52.342;5.528;2023-02-10T07:15:13;103543.00;;;-0.38;85.84
43161;BME280;40968;52.342;5.528;2023-02-10T07:17:42;103559.91;;;-0.23;85.86
43161;BME280;40968;52.342;5.528;2023-02-10T07:20:11;103620.22;;;0.15;86.19
43161;BME280;40968;52.342;5.528;2023-02-10T07:22:37;103623.72;;;0.15;86.13
43161;BME280;40968;52.342;5.528;2023-02-10T07:25:04;103628.16;;;0.16;86.06
43161;BME280;40968;52.342;5.528;2023-02-10T07:27:31;103608.59;;;0.01;86.57
43161;BME280;40968;52.342;5.528;2023-02-10T07:29:58;103595.31;;;-0.06;86.35
43161;BME280;40968;52.342;5.528;2023-02-10T07:32:24;103471.16;;;-0.84;86.63
43161;BME280;40968;52.342;5.528;2023-02-10T07:34:51;103600.47;;;-0.12;86.51
43161;BME280;40968;52.342;5.528;2023-02-10T07:37:19;103566.72;;;-0.38;86.27
43161;BME280;40968;52.342;5.528;2023-02-10T07:39:45;103588.13;;;-0.16;86.25
43161;BME280;40968;52.342;5.528;2023-02-10T07:42:12;103653.72;;;0.22;86.48
43161;BME280;40968;52.342;5.528;2023-02-10T07:44:39;103650.22;;;0.25;86.17
43161;BME280;40968;52.342;5.528;2023-02-10T07:47:05;103606.81;;;-0.01;86.19
43161;BME280;40968;52.342;5.528;2023-02-10T07:49:32;103656.47;;;0.30;86.64
43161;BME280;40968;52.342;5.528;2023-02-10T07:51:59;103654.75;;;0.32;86.69
43161;BME280;40968;52.342;5.528;2023-02-10T07:54:27;103581.03;;;-0.20;86.43
43161;BME280;40968;52.342;5.528;2023-02-10T07:56:55;103566.06;;;-0.21;86.51
43161;BME280;40968;52.342;5.528;2023-02-10T07:59:22;103671.53;;;0.39;86.51
43161;BME280;40968;52.342;5.528;2023-02-10T08:01:48;103490.81;;;-0.63;86.20
43161;BME280;40968;52.342;5.528;2023-02-10T08:04:15;103673.34;;;0.43;86.71
43161;BME280;40968;52.342;5.528;2023-02-10T08:06:41;103676.91;;;0.45;86.44
43161;BME280;40968;52.342;5.528;2023-02-10T08:09:08;103671.66;;;0.48;86.44
43161;BME280;40968;52.342;5.528;2023-02-10T08:11:36;103669.94;;;0.50;86.37
43161;BME280;40968;52.342;5.528;2023-02-10T08:14:03;103622.25;;;0.35;86.24
43161;BME280;40968;52.342;5.528;2023-02-10T08:16:30;103460.19;;;-0.55;86.51
43161;BME280;40968;52.342;5.528;2023-02-10T08:18:56;103585.97;;;0.20;86.57
43161;BME280;40968;52.342;5.528;2023-02-10T08:21:23;103615.34;;;0.46;86.65
43161;BME280;40968;52.342;5.528;2023-02-10T08:23:51;103643.72;;;0.65;86.76
43161;BME280;40968;52.342;5.528;2023-02-10T08:26:20;103626.03;;;0.57;86.51
43161;BME280;40968;52.342;5.528;2023-02-10T08:28:49;103473.63;;;-0.37;86.42
43161;BME280;40968;52.342;5.528;2023-02-10T08:31:16;103664.16;;;0.79;86.96
43161;BME280;40968;52.342;5.528;2023-02-10T08:33:43;103665.94;;;0.81;86.74
43161;BME280;40968;52.342;5.528;2023-02-10T08:36:11;103633.16;;;0.65;86.80
43161;BME280;40968;52.342;5.528;2023-02-10T08:38:38;103571.19;;;0.32;86.69
43161;BME280;40968;52.342;5.528;2023-02-10T08:41:05;103666.91;;;0.91;86.78
43161;BME280;40968;52.342;5.528;2023-02-10T08:43:32;103626.13;;;0.64;86.52
43161;BME280;40968;52.342;5.528;2023-02-10T08:46:00;103659.00;;;0.91;86.65
43161;BME280;40968;52.342;5.528;2023-02-10T08:48:28;103679.34;;;0.98;86.75
43161;BME280;40968;52.342;5.528;2023-02-10T08:50:56;103581.84;;;0.39;86.50
43161;BME280;40968;52.342;5.528;2023-02-10T08:53:23;103514.59;;;0.06;86.37
43161;BME280;40968;52.342;5.528;2023-02-10T08:55:55;103676.75;;;1.05;86.68
43161;BME280;40968;52.342;5.528;2023-02-10T08:58:22;103685.59;;;1.07;86.34
43161;BME280;40968;52.342;5.528;2023-02-10T09:00:49;103613.94;;;0.76;86.54
43161;BME280;40968;52.342;5.528;2023-02-10T09:03:17;103495.31;;;0.10;86.31
43161;BME280;40968;52.342;5.528;2023-02-10T09:05:44;103507.75;;;0.20;86.55
43161;BME280;40968;52.342;5.528;2023-02-10T09:08:11;103668.13;;;1.20;86.57
43161;BME280;40968;52.342;5.528;2023-02-10T09:10:38;103637.09;;;1.02;86.33
43161;BME280;40968;52.342;5.528;2023-02-10T09:13:05;103660.13;;;1.15;86.44
43161;BME280;40968;52.342;5.528;2023-02-10T09:15:34;103634.53;;;1.09;86.31
43161;BME280;40968;52.342;5.528;2023-02-10T09:18:02;103657.63;;;1.27;86.39
43161;BME280;40968;52.342;5.528;2023-02-10T09:20:30;103547.91;;;0.73;86.46
43161;BME280;40968;52.342;5.528;2023-02-10T09:22:57;103654.22;;;1.41;86.47
43161;BME280;40968;52.342;5.528;2023-02-10T09:25:23;103547.19;;;0.89;86.37
43161;BME280;40968;52.342;5.528;2023-02-10T09:27:51;103644.66;;;1.55;86.32
43161;BME280;40968;52.342;5.528;2023-02-10T09:30:18;103605.72;;;1.32;86.14
43161;BME280;40968;52.342;5.528;2023-02-10T09:32:45;103673.09;;;1.84;86.15
43161;BME280;40968;52.342;5.528;2023-02-10T09:35:11;103677.53;;;1.88;85.76
43161;BME280;40968;52.342;5.528;2023-02-10T09:37:39;103677.53;;;1.90;85.86
43161;BME280;40968;52.342;5.528;2023-02-10T09:40:09;103519.13;;;1.01;85.45
43161;BME280;40968;52.342;5.528;2023-02-10T09:42:53;103683.75;;;1.96;85.46
43161;BME280;40968;52.342;5.528;2023-02-10T09:45:25;103625.38;;;1.69;85.17
43161;BME280;40968;52.342;5.528;2023-02-10T09:47:57;103631.63;;;1.80;85.16
43161;BME280;40968;52.342;5.528;2023-02-10T09:50:41;103629.00;;;1.85;85.02
43161;BME280;40968;52.342;5.528;2023-02-10T09:53:17;103667.97;;;2.06;85.01
43161;BME280;40968;52.342;5.528;2023-02-10T09:55:48;103506.03;;;1.18;84.79
43161;BME280;40968;52.342;5.528;2023-02-10T09:58:19;103521.16;;;1.32;84.47
43161;BME280;40968;52.342;5.528;2023-02-10T10:00:51;103681.34;;;2.29;84.37
43161;BME280;40968;52.342;5.528;2023-02-10T10:03:19;103523.00;;;1.43;84.24
43161;BME280;40968;52.342;5.528;2023-02-10T10:05:57;103681.41;;;2.41;84.39
43161;BME280;40968;52.342;5.528;2023-02-10T10:08:34;103508.88;;;1.44;83.95
43161;BME280;40968;52.342;5.528;2023-02-10T10:11:09;103654.03;;;2.35;83.71
43161;BME280;40968;52.342;5.528;2023-02-10T10:13:40;103535.53;;;1.75;83.52
43161;BME280;40968;52.342;5.528;2023-02-10T10:16:19;103678.88;;;2.64;83.31
43161;BME280;40968;52.342;5.528;2023-02-10T10:19:01;103609.88;;;2.27;83.29
43161;BME280;40968;52.342;5.528;2023-02-10T10:21:38;103685.09;;;2.77;82.99
43161;BME280;40968;52.342;5.528;2023-02-10T10:24:21;103677.19;;;2.85;82.86
43161;BME280;40968;52.342;5.528;2023-02-10T10:27:00;103605.56;;;2.51;82.31
43161;BME280;40968;52.342;5.528;2023-02-10T10:29:39;103517.19;;;2.07;82.13
43161;BME280;40968;52.342;5.528;2023-02-10T10:32:14;103564.91;;;2.35;82.16
43161;BME280;40968;52.342;5.528;2023-02-10T10:34:45;103679.03;;;3.14;82.18
43161;BME280;40968;52.342;5.528;2023-02-10T10:37:18;103682.59;;;3.19;81.82
43161;BME280;40968;52.342;5.528;2023-02-10T10:39:48;103609.22;;;2.87;82.00
43161;BME280;40968;52.342;5.528;2023-02-10T10:42:20;103679.97;;;3.38;81.47
43161;BME280;40968;52.342;5.528;2023-02-10T10:44:49;103653.44;;;3.30;81.36
43161;BME280;40968;52.342;5.528;2023-02-10T10:47:20;103636.66;;;3.29;80.78
43161;BME280;40968;52.342;5.528;2023-02-10T10:49:52;103687.97;;;3.59;80.63
43161;BME280;40968;52.342;5.528;2023-02-10T10:52:26;103680.88;;;3.68;80.32
43161;BME280;40968;52.342;5.528;2023-02-10T10:54:55;103657.91;;;3.60;80.06
43161;BME280;40968;52.342;5.528;2023-02-10T10:57:22;103492.63;;;2.82;79.77
43161;BME280;40968;52.342;5.528;2023-02-10T10:59:53;103586.28;;;3.48;79.41
43161;BME280;40968;52.342;5.528;2023-02-10T11:02:21;103672.00;;;4.15;78.98
43161;BME280;40968;52.342;5.528;2023-02-10T11:04:59;103674.63;;;4.24;78.73
43161;BME280;40968;52.342;5.528;2023-02-10T11:07:27;103521.78;;;3.49;78.41
43161;BME280;40968;52.342;5.528;2023-02-10T11:09:56;103534.13;;;3.62;78.41
43161;BME280;40968;52.342;5.528;2023-02-10T11:12:27;103671.88;;;4.61;78.21
43161;BME280;40968;52.342;5.528;2023-02-10T11:14:56;103438.72;;;3.41;77.80
43161;BME280;40968;52.342;5.528;2023-02-10T11:17:28;103669.09;;;4.89;77.63
43161;BME280;40968;52.342;5.528;2023-02-10T11:19:58;103568.31;;;4.49;76.97
43161;BME280;40968;52.342;5.528;2023-02-10T11:22:26;103503.81;;;4.25;76.15
43161;BME280;40968;52.342;5.528;2023-02-10T11:24:56;103648.50;;;5.25;75.89
43161;BME280;40968;52.342;5.528;2023-02-10T11:27:23;103644.84;;;5.39;75.50
43161;BME280;40968;52.342;5.528;2023-02-10T11:29:51;103542.44;;;4.85;75.19
43161;BME280;40968;52.342;5.528;2023-02-10T11:32:20;103654.47;;;5.57;74.70
43161;BME280;40968;52.342;5.528;2023-02-10T11:34:49;103640.25;;;5.61;74.35
43161;BME280;40968;52.342;5.528;2023-02-10T11:37:20;103479.59;;;4.78;73.81
43161;BME280;40968;52.342;5.528;2023-02-10T11:39:48;103636.47;;;5.84;73.67
43161;BME280;40968;52.342;5.528;2023-02-10T11:42:19;103480.22;;;5.12;73.37
43161;BME280;40968;52.342;5.528;2023-02-10T11:44:55;103631.81;;;6.09;73.04
43161;BME280;40968;52.342;5.528;2023-02-10T11:47:23;103580.56;;;5.88;72.43
43161;BME280;40968;52.342;5.528;2023-02-10T11:49:50;103571.59;;;5.94;71.64
43161;BME280;40968;52.342;5.528;2023-02-10T11:52:18;103571.53;;;6.03;71.66
43161;BME280;40968;52.342;5.528;2023-02-10T11:54:47;103566.13;;;6.11;71.06
43161;BME280;40968;52.342;5.528;2023-02-10T11:57:35;103579.28;;;6.23;71.42
43161;BME280;40968;52.342;5.528;2023-02-10T12:00:29;103610.84;;;6.56;70.35
43161;BME280;40968;52.342;5.528;2023-02-10T12:06:03;103601.78;;;6.69;69.75
43161;BME280;40968;52.342;5.528;2023-02-10T12:08:38;103629.75;;;7.03;69.07
43161;BME280;40968;52.342;5.528;2023-02-10T12:11:11;103632.28;;;7.12;68.54
43161;BME280;40968;52.342;5.528;2023-02-10T12:13:45;103589.75;;;7.03;68.35
43161;BME280;40968;52.342;5.528;2023-02-10T12:16:26;103605.63;;;7.10;66.60
43161;BME280;40968;52.342;5.528;2023-02-10T12:18:58;103630.06;;;7.39;66.33
43161;BME280;40968;52.342;5.528;2023-02-10T12:21:43;103626.50;;;7.40;65.07
43161;BME280;40968;52.342;5.528;2023-02-10T12:24:27;103578.06;;;7.11;64.54
43161;BME280;40968;52.342;5.528;2023-02-10T12:27:03;103625.56;;;7.42;64.53
43161;BME280;40968;52.342;5.528;2023-02-10T12:29:47;103624.56;;;7.50;63.67
43161;BME280;40968;52.342;5.528;2023-02-10T12:32:25;103587.44;;;7.36;63.92
43161;BME280;40968;52.342;5.528;2023-02-10T12:35:19;103583.91;;;7.35;63.63
43161;BME280;40968;52.342;5.528;2023-02-10T12:37:54;103569.78;;;7.28;63.63
43161;BME280;40968;52.342;5.528;2023-02-10T12:40:47;103625.31;;;7.58;63.72
43161;BME280;40968;52.342;5.528;2023-02-10T12:43:32;103551.34;;;7.14;63.93
43161;BME280;40968;52.342;5.528;2023-02-10T12:46:14;103609.19;;;7.64;63.56
43161;BME280;40968;52.342;5.528;2023-02-10T12:48:48;103610.94;;;7.67;63.64
43161;BME280;40968;52.342;5.528;2023-02-10T12:51:39;103602.78;;;7.73;63.40
43161;BME280;40968;52.342;5.528;2023-02-10T12:54:14;103540.94;;;7.49;62.41
43161;BME280;40968;52.342;5.528;2023-02-10T12:56:47;103532.84;;;7.55;61.41
43161;BME280;40968;52.342;5.528;2023-02-10T12:59:19;103426.22;;;7.01;61.82
43161;BME280;40968;52.342;5.528;2023-02-10T13:01:51;103556.16;;;7.92;61.59
43161;BME280;40968;52.342;5.528;2023-02-10T13:04:23;103532.53;;;7.72;60.02
43161;BME280;40968;52.342;5.528;2023-02-10T13:06:56;103539.38;;;7.86;59.97
43161;BME280;40968;52.342;5.528;2023-02-10T13:09:25;103547.41;;;7.84;60.26
43161;BME280;40968;52.342;5.528;2023-02-10T13:12:05;103501.06;;;7.43;60.24
43161;BME280;40968;52.342;5.528;2023-02-10T13:14:37;103399.84;;;6.85;59.38